KIZG

Eastern Slopes Regional Airport

Fryeburg, Maine, USA
METAR KIZG 201954Z AUTO 00000KT 10SM BKN055 26/13 A3017 RMK AO2 SLP217 T02560128
Observed Flight Rules
Aug-20 @ 19:54 UTC (36 minutes ago) Visual Flight Rules
Visibility Clouds
10 miles
  • Broken at 5,500' AGL
Temperatures Readings
Current 26°C / 79°F
Dewpoint 13°C / 55°F
Humidity 45%
Altimeter 30.17" Hg
Pressure 1021.7 hPa
Elevation 135
METAR KIZG 201954Z AUTO 00000KT 10SM BKN055 26/13 A3017 RMK AO2 SLP217 T02560128
Observed Flight Rules
Aug-20 @ 19:54 UTC
(36 minutes ago)
VFR
Clouds
  • Broken at 5,500' AGL
Temperature Dewpoint
26°C / 79°F 13°C / 55°F
Humidity Altimeter Pressure
45% 30.17" Hg 1021.7 hPa